Terminal Aerodrome Forecast
Issued by NWS Wilmington, NC

Home | Current Version | Previous Version | Text Only | Print | Product List | Glossary On
Versions: 1 2 3 4 5 6 7 8 9 10 11 12 13
000
FTUS42 KILM 161120
TAFFLO
TAF
KFLO 161120Z 1612/1712 02005KT P6SM SKC
     FM161400 09004KT P6SM SKC
     FM161700 17004KT P6SM SKC
     FM162100 23002KT P6SM SKC=

USA.gov is the U.S. government's official web portal to all federal, state and local government web resources and services.